Time;durP1;ratioP1;P1;durP2;ratioP2;P2;SDS_P1;SDS_P2;PMS_P1;PMS_P2;Temp;Humidity;BMP_temperature;BMP_pressure;BME280_temperature;BME280_humidity;BME280_pressure;Samples;Min_cycle;Max_cycle;Signal;HPM_P1;HPM_P2
2022/08/02 00:01:33;;;;;;;1.88;1.00;;;22.10;87.60;;;;;;5096409;28;20036;-70
2022/08/02 00:04:01;;;;;;;1.80;1.00;;;22.30;87.50;;;;;;5114502;28;20035;-69
2022/08/02 00:06:27;;;;;;;1.38;1.08;;;22.30;87.60;;;;;;5096235;28;20032;-69
2022/08/02 00:08:53;;;;;;;1.10;1.00;;;22.20;88.20;;;;;;5114520;28;20040;-72
2022/08/02 00:11:19;;;;;;;5.60;1.17;;;22.30;88.00;;;;;;5096059;28;20096;-70
2022/08/02 00:13:45;;;;;;;1.10;1.00;;;22.10;88.90;;;;;;5096098;28;20027;-72
2022/08/02 00:16:11;;;;;;;2.90;1.00;;;22.10;89.00;;;;;;5114287;28;20046;-69
2022/08/02 00:18:37;;;;;;;2.95;1.10;;;22.20;89.00;;;;;;5095795;28;20571;-70
2022/08/02 00:21:03;;;;;;;1.65;1.10;;;22.10;89.40;;;;;;5113971;28;20043;-69
2022/08/02 00:23:28;;;;;;;2.85;1.23;;;22.00;89.90;;;;;;5095655;28;20235;-69
2022/08/02 00:25:54;;;;;;;1.00;0.90;;;22.10;90.10;;;;;;5113852;28;20050;-69
2022/08/02 00:28:20;;;;;;;6.25;1.00;;;22.10;89.60;;;;;;5095839;28;20031;-72
2022/08/02 00:30:45;;;;;;;1.70;1.08;;;22.00;90.10;;;;;;5113504;28;20049;-70
2022/08/02 00:33:11;;;;;;;2.03;1.23;;;22.00;90.40;;;;;;5095764;28;20078;-72
2022/08/02 00:35:37;;;;;;;1.40;1.20;;;21.90;90.50;;;;;;5114107;28;20039;-71
2022/08/02 00:38:03;;;;;;;1.77;1.02;;;21.90;90.70;;;;;;5113999;28;20047;-69
2022/08/02 00:40:29;;;;;;;1.60;1.10;;;21.90;90.80;;;;;;5113874;28;20039;-71
2022/08/02 00:43:07;;;;;;;8.82;1.30;;;22.00;90.40;;;;;;5113669;28;20116;-69
2022/08/02 00:45:35;;;;;;;1.00;0.90;;;21.90;90.80;;;;;;5113656;28;20039;-69
2022/08/02 00:48:02;;;;;;;3.03;1.10;;;22.00;90.80;;;;;;5113875;28;20039;-69
2022/08/02 00:50:28;;;;;;;1.90;1.20;;;21.80;91.20;;;;;;5113801;28;20083;-70
2022/08/02 00:52:54;;;;;;;1.27;0.98;;;21.80;91.40;;;;;;5095563;28;20528;-70
2022/08/02 00:55:21;;;;;;;1.30;1.10;;;21.70;91.50;;;;;;5095435;28;20053;-70
2022/08/02 00:57:47;;;;;;;1.20;1.10;;;21.80;91.40;;;;;;5113629;28;20086;-69
2022/08/02 01:00:13;;;;;;;1.33;0.95;;;21.70;91.80;;;;;;5095660;28;20394;-70
2022/08/02 01:02:40;;;;;;;5.88;1.52;;;21.70;92.00;;;;;;5113510;28;20499;-70
2022/08/02 01:05:06;;;;;;;1.77;0.95;;;21.70;92.20;;;;;;5113410;28;20043;-72
2022/08/02 01:07:31;;;;;;;1.73;0.98;;;21.70;92.20;;;;;;5113550;28;20549;-69
2022/08/02 01:09:57;;;;;;;1.00;0.90;;;21.70;92.20;;;;;;5113558;28;20208;-69
2022/08/02 01:12:24;;;;;;;1.35;1.05;;;21.70;92.30;;;;;;5113494;28;20525;-69
2022/08/02 01:14:52;;;;;;;1.45;1.10;;;21.60;92.70;;;;;;5113429;28;20487;-71
2022/08/02 01:17:44;;;;;;;3.00;0.90;;;21.60;92.90;;;;;;5113514;28;20040;-69
2022/08/02 01:20:43;;;;;;;1.50;0.90;;;21.60;92.80;;;;;;5113245;28;20051;-69
2022/08/02 01:23:33;;;;;;;0.60;0.60;;;21.50;93.00;;;;;;5113040;28;20031;-70
2022/08/02 01:26:41;;;;;;;1.17;0.90;;;21.50;92.90;;;;;;5113165;28;20410;-70
2022/08/02 01:29:28;;;;;;;1.27;0.80;;;21.50;92.80;;;;;;5113427;28;20035;-69
2022/08/02 01:32:13;;;;;;;2.03;1.00;;;21.40;92.90;;;;;;5111443;28;20059;-69
2022/08/02 01:35:10;;;;;;;3.08;0.70;;;21.40;92.80;;;;;;5113296;28;20035;-68
2022/08/02 01:37:42;;;;;;;1.58;0.65;;;21.30;93.20;;;;;;5113427;28;20040;-69
2022/08/02 01:40:10;;;;;;;1.00;0.70;;;21.30;93.20;;;;;;5113266;28;20530;-69
2022/08/02 01:42:47;;;;;;;0.70;0.70;;;21.40;93.30;;;;;;5097786;28;20073;-69
2022/08/02 01:45:14;;;;;;;0.77;0.63;;;21.30;93.20;;;;;;5079611;28;20043;-69
2022/08/02 01:47:42;;;;;;;0.75;0.75;;;21.20;93.40;;;;;;5096680;28;20044;-69
2022/08/02 01:50:14;;;;;;;2.20;1.00;;;21.20;93.70;;;;;;5096549;28;20044;-69
2022/08/02 01:52:46;;;;;;;1.05;0.70;;;21.20;93.70;;;;;;5078460;28;20036;-69
2022/08/02 01:55:44;;;;;;;1.40;0.60;;;21.20;93.70;;;;;;5096743;28;20040;-69
2022/08/02 01:58:13;;;;;;;1.35;0.77;;;21.20;93.70;;;;;;5078262;28;20051;-69
2022/08/02 02:00:40;;;;;;;1.45;0.70;;;21.20;93.60;;;;;;5104669;27;20115;-69
2022/08/02 02:03:11;;;;;;;1.35;0.70;;;21.10;93.80;;;;;;5117071;28;20534;-70
2022/08/02 02:05:38;;;;;;;1.35;0.60;;;21.10;93.70;;;;;;5079381;28;20380;-69
2022/08/02 02:08:06;;;;;;;1.15;0.85;;;21.10;93.90;;;;;;5111639;28;20043;-69
2022/08/02 02:10:34;;;;;;;1.83;0.85;;;21.10;93.80;;;;;;5116916;28;20138;-69
2022/08/02 02:13:12;;;;;;;2.35;0.80;;;21.20;93.90;;;;;;5116813;28;20046;-70
2022/08/02 02:15:45;;;;;;;3.00;1.27;;;21.30;93.80;;;;;;5092664;28;20036;-70
2022/08/02 02:18:17;;;;;;;0.65;0.57;;;21.10;93.90;;;;;;5077874;28;20131;-69
2022/08/02 02:20:43;;;;;;;0.65;0.65;;;21.10;94.00;;;;;;5111486;28;20406;-70
2022/08/02 02:23:11;;;;;;;0.50;0.50;;;21.10;94.00;;;;;;5096144;28;20123;-69
2022/08/02 02:25:39;;;;;;;0.80;0.70;;;21.10;93.90;;;;;;5096167;28;20044;-69
2022/08/02 02:28:11;;;;;;;2.47;0.88;;;21.20;93.90;;;;;;5095934;28;20086;-70
2022/08/02 02:30:47;;;;;;;0.80;0.70;;;21.20;93.90;;;;;;5095800;28;20385;-69
2022/08/02 02:33:17;;;;;;;2.33;0.80;;;21.20;93.70;;;;;;5095626;28;20048;-69
2022/08/02 02:35:46;;;;;;;1.60;1.00;;;21.10;93.90;;;;;;5112052;28;20067;-69
2022/08/02 02:38:15;;;;;;;1.95;0.95;;;21.10;93.80;;;;;;5116441;28;20122;-69
2022/08/02 02:40:43;;;;;;;0.68;0.68;;;21.00;94.30;;;;;;5116335;28;20044;-71
2022/08/02 02:43:11;;;;;;;1.25;0.82;;;20.90;94.30;;;;;;5116213;28;20032;-70
2022/08/02 02:45:39;;;;;;;1.38;0.70;;;20.80;94.70;;;;;;5115976;28;20562;-69
2022/08/02 02:48:07;;;;;;;1.95;0.60;;;20.90;94.80;;;;;;5116116;28;20039;-71
2022/08/02 02:50:34;;;;;;;1.70;0.68;;;21.00;94.60;;;;;;5115982;28;20044;-69
2022/08/02 02:53:01;;;;;;;2.25;0.75;;;20.80;95.00;;;;;;5115693;28;20035;-69
2022/08/02 02:55:28;;;;;;;1.65;0.80;;;20.80;95.20;;;;;;5097633;28;20028;-70
2022/08/02 02:57:55;;;;;;;4.60;0.75;;;20.90;95.00;;;;;;5107046;28;20050;-69
2022/08/02 03:01:26;;;;;;;3.17;1.10;;;20.70;95.60;;;;;;5115490;28;20076;-68
2022/08/02 03:03:08;;;;;;;4.05;0.98;;;20.80;95.70;;;;;;5115634;28;20426;-68
2022/08/02 03:05:34;;;;;;;1.70;0.55;;;20.70;95.80;;;;;;5114359;28;20035;-69
2022/08/02 03:08:03;;;;;;;1.15;0.80;;;20.70;95.70;;;;;;5094932;28;20031;-69
2022/08/02 03:10:29;;;;;;;1.10;0.60;;;20.70;95.80;;;;;;5094366;28;20379;-69
2022/08/02 03:12:57;;;;;;;1.52;0.70;;;20.70;95.90;;;;;;5115755;28;20073;-69
2022/08/02 03:15:25;;;;;;;0.77;0.68;;;20.80;95.50;;;;;;5115365;28;20723;-68
2022/08/02 03:17:51;;;;;;;1.15;0.68;;;20.80;95.40;;;;;;5096863;28;20080;-69
2022/08/02 03:20:18;;;;;;;2.20;0.73;;;20.80;95.50;;;;;;5097060;28;20055;-69
2022/08/02 03:22:46;;;;;;;1.15;0.80;;;20.60;96.20;;;;;;5097237;28;20035;-71
2022/08/02 03:25:13;;;;;;;0.73;0.70;;;20.40;96.90;;;;;;5115421;28;20040;-69
2022/08/02 03:27:40;;;;;;;1.90;0.90;;;20.40;97.00;;;;;;5115513;28;20486;-69
2022/08/02 03:30:08;;;;;;;1.00;0.90;;;20.50;97.60;;;;;;5115310;28;20071;-69
2022/08/02 03:32:38;;;;;;;1.42;0.73;;;20.50;97.10;;;;;;5115314;28;20422;-69
2022/08/02 03:35:08;;;;;;;0.98;0.88;;;20.30;97.60;;;;;;5096909;28;20569;-72
2022/08/02 03:37:35;;;;;;;0.95;0.80;;;20.50;97.10;;;;;;5115216;28;20540;-69
2022/08/02 03:40:04;;;;;;;1.67;0.88;;;20.50;97.10;;;;;;5096849;28;20043;-68
2022/08/02 03:42:30;;;;;;;0.90;0.70;;;20.40;97.80;;;;;;5115116;28;20535;-68
2022/08/02 03:44:58;;;;;;;0.95;0.70;;;20.30;98.20;;;;;;5114999;28;20044;-69
2022/08/02 03:47:26;;;;;;;1.52;0.93;;;20.30;98.40;;;;;;5114902;28;20032;-71
2022/08/02 03:49:52;;;;;;;0.90;0.70;;;20.20;99.00;;;;;;5114544;28;20043;-72
2022/08/02 03:52:19;;;;;;;1.23;0.88;;;20.30;98.80;;;;;;5096467;28;20127;-69
2022/08/02 03:54:44;;;;;;;1.10;1.00;;;20.10;99.70;;;;;;5096361;28;20074;-68
2022/08/02 03:57:10;;;;;;;2.65;0.90;;;20.00;99.90;;;;;;5096307;28;20540;-69
2022/08/02 03:59:44;;;;;;;1.30;1.00;;;20.00;99.90;;;;;;5096493;28;20035;-70
2022/08/02 04:02:11;;;;;;;1.00;0.70;;;20.00;99.90;;;;;;5114565;28;20043;-69
2022/08/02 04:04:37;;;;;;;0.93;0.80;;;20.00;99.90;;;;;;5113446;28;20035;-71
2022/08/02 04:07:03;;;;;;;1.92;1.15;;;20.00;99.90;;;;;;5114446;28;20050;-69
2022/08/02 04:09:29;;;;;;;0.90;0.80;;;20.10;99.90;;;;;;5096445;28;20042;-69
2022/08/02 04:11:55;;;;;;;0.90;0.82;;;20.00;99.90;;;;;;5114596;28;20051;-70
2022/08/02 04:14:21;;;;;;;1.23;0.60;;;20.00;99.90;;;;;;5114524;28;20038;-72
2022/08/02 04:16:53;;;;;;;3.28;0.95;;;19.80;99.90;;;;;;5114373;28;20039;-68
2022/08/02 04:19:47;;;;;;;1.10;0.88;;;19.70;99.90;;;;;;5095694;28;20554;-69
2022/08/02 04:22:25;;;;;;;1.63;0.88;;;19.90;99.90;;;;;;5114171;28;20035;-72
2022/08/02 04:24:55;;;;;;;1.10;0.85;;;19.90;99.90;;;;;;5095941;28;20139;-70
2022/08/02 04:27:22;;;;;;;2.03;1.00;;;19.90;99.90;;;;;;5114215;28;20036;-69
2022/08/02 04:29:52;;;;;;;1.15;0.98;;;19.90;99.90;;;;;;5123076;27;20047;-69
2022/08/02 04:32:19;;;;;;;2.60;0.75;;;19.80;99.90;;;;;;5134596;27;20043;-71
2022/08/02 04:34:45;;;;;;;2.92;0.93;;;19.80;99.90;;;;;;5116244;27;20487;-69
2022/08/02 04:37:12;;;;;;;0.90;0.80;;;19.80;99.90;;;;;;5134483;27;20413;-68
2022/08/02 04:39:40;;;;;;;1.33;1.00;;;19.80;99.90;;;;;;5134365;27;20089;-69
2022/08/02 04:42:06;;;;;;;1.45;1.10;;;19.90;99.90;;;;;;5134538;27;20486;-69
2022/08/02 04:44:32;;;;;;;1.73;1.10;;;19.70;99.90;;;;;;5134579;27;20533;-67
2022/08/02 04:47:01;;;;;;;1.20;0.80;;;19.60;99.90;;;;;;5120758;27;20050;-69
2022/08/02 04:49:28;;;;;;;1.90;1.05;;;19.60;99.90;;;;;;5132757;27;20035;-69
2022/08/02 04:51:54;;;;;;;3.55;1.38;;;19.60;99.90;;;;;;5134108;27;20077;-68
2022/08/02 04:54:20;;;;;;;3.67;0.90;;;19.60;99.90;;;;;;5131930;27;20042;-68
2022/08/02 04:56:46;;;;;;;2.40;0.82;;;19.60;99.90;;;;;;5100744;28;20043;-68
2022/08/02 04:59:11;;;;;;;2.45;0.80;;;19.70;99.90;;;;;;5114323;27;20425;-68
2022/08/02 05:01:38;;;;;;;1.17;0.85;;;19.70;99.90;;;;;;5115376;27;20031;-69
2022/08/02 05:04:04;;;;;;;0.82;0.70;;;19.70;99.90;;;;;;5122960;27;20039;-68
2022/08/02 05:06:31;;;;;;;1.13;0.90;;;19.80;99.90;;;;;;5122111;27;20448;-68
2022/08/02 05:08:57;;;;;;;1.98;0.68;;;19.70;99.90;;;;;;5113722;28;20047;-69
2022/08/02 05:11:24;;;;;;;1.42;0.90;;;19.80;99.90;;;;;;5111953;28;20066;-69
2022/08/02 05:13:50;;;;;;;1.80;1.10;;;19.90;99.90;;;;;;5094308;28;20034;-68
2022/08/02 05:16:16;;;;;;;0.88;0.70;;;20.00;99.90;;;;;;5113437;28;20044;-69
2022/08/02 05:18:42;;;;;;;6.05;0.90;;;20.00;99.90;;;;;;5095068;28;20032;-68
2022/08/02 05:21:08;;;;;;;2.45;0.73;;;20.10;99.90;;;;;;5113158;28;20059;-68
2022/08/02 05:23:34;;;;;;;1.10;0.57;;;20.10;99.90;;;;;;5113529;28;20062;-68
2022/08/02 05:26:00;;;;;;;1.45;0.80;;;20.20;99.90;;;;;;5095086;28;20046;-68
2022/08/02 05:28:25;;;;;;;1.33;0.70;;;20.40;99.90;;;;;;5113600;28;20039;-70
2022/08/02 05:30:51;;;;;;;0.73;0.73;;;20.40;99.90;;;;;;5113086;28;20052;-69
2022/08/02 05:33:17;;;;;;;0.90;0.65;;;20.50;99.90;;;;;;5111811;28;20036;-68
2022/08/02 05:35:43;;;;;;;1.25;0.60;;;20.60;99.90;;;;;;5112231;28;20058;-69
2022/08/02 05:38:09;;;;;;;0.93;0.70;;;20.70;99.90;;;;;;5112647;28;20035;-69
2022/08/02 05:40:34;;;;;;;1.08;0.80;;;20.90;99.80;;;;;;5112993;28;20043;-68
2022/08/02 05:43:00;;;;;;;2.28;0.90;;;20.90;99.20;;;;;;5112962;28;20042;-68
2022/08/02 05:45:26;;;;;;;1.58;0.52;;;21.20;98.90;;;;;;5113321;28;20093;-69
2022/08/02 05:47:52;;;;;;;0.73;0.63;;;21.20;98.90;;;;;;5113174;28;20059;-68
2022/08/02 05:50:18;;;;;;;3.00;0.77;;;;;;;;;;5094698;28;20074;-69
2022/08/02 05:52:47;;;;;;;1.20;0.82;;;21.40;98.20;;;;;;5113378;28;20474;-69
2022/08/02 05:55:21;;;;;;;1.75;0.68;;;21.50;98.20;;;;;;5113095;28;20099;-69
2022/08/02 05:58:01;;;;;;;1.92;0.90;;;21.60;97.70;;;;;;5113049;28;20043;-69
2022/08/02 06:00:31;;;;;;;2.13;0.80;;;21.70;97.50;;;;;;5094821;28;20044;-69
2022/08/02 06:03:06;;;;;;;0.95;0.90;;;21.80;97.10;;;;;;5113179;28;20043;-68
2022/08/02 06:05:35;;;;;;;0.95;0.60;;;21.90;97.00;;;;;;5113068;28;20577;-68
2022/08/02 06:08:02;;;;;;;0.88;0.77;;;22.00;96.80;;;;;;5113054;28;20035;-69
2022/08/02 06:10:29;;;;;;;1.23;0.75;;;22.10;96.40;;;;;;5112927;28;20055;-69
2022/08/02 06:13:10;;;;;;;3.10;0.82;;;22.20;96.40;;;;;;5112869;28;20043;-68
2022/08/02 06:15:37;;;;;;;2.85;0.70;;;22.20;96.10;;;;;;5112821;28;20039;-69
2022/08/02 06:18:04;;;;;;;1.27;0.88;;;22.30;96.10;;;;;;5112702;28;20123;-68
2022/08/02 06:20:34;;;;;;;0.75;0.60;;;22.60;95.90;;;;;;5112848;28;20104;-68
2022/08/02 06:23:03;;;;;;;1.90;0.85;;;22.80;95.80;;;;;;5094886;28;20244;-69
2022/08/02 06:25:30;;;;;;;2.47;1.17;;;;;;;;;;5113082;28;20444;-68
2022/08/02 06:27:57;;;;;;;1.45;0.70;;;;;;;;;;5114573;28;20091;-69
2022/08/02 06:30:22;;;;;;;1.45;1.00;;;23.20;99.90;;;;;;5116611;28;20047;-68
2022/08/02 06:32:52;;;;;;;0.70;0.70;;;23.30;94.50;;;;;;5098364;28;20142;-68
2022/08/02 06:35:18;;;;;;;0.88;0.60;;;23.60;94.60;;;;;;5116765;28;20039;-69
2022/08/02 06:37:50;;;;;;;0.70;0.70;;;24.00;93.70;;;;;;5116490;28;20032;-68
2022/08/02 06:40:25;;;;;;;1.50;0.63;;;23.80;93.70;;;;;;5116265;28;20031;-69
2022/08/02 06:43:15;;;;;;;4.97;0.68;;;24.10;93.50;;;;;;5116268;28;20126;-69
2022/08/02 06:45:41;;;;;;;1.30;0.90;;;24.20;96.70;;;;;;5116137;28;20040;-70
2022/08/02 06:48:08;;;;;;;1.15;0.70;;;24.10;93.30;;;;;;5116396;28;20117;-70
2022/08/02 06:50:37;;;;;;;0.90;0.80;;;24.60;93.10;;;;;;5116176;28;20050;-68
2022/08/02 06:53:05;;;;;;;4.20;0.70;;;25.10;92.60;;;;;;5116321;28;20078;-69
2022/08/02 06:55:31;;;;;;;2.95;0.80;;;26.10;91.50;;;;;;5116159;28;20079;-68
2022/08/02 06:57:57;;;;;;;1.00;0.70;;;25.80;90.90;;;;;;5116207;28;20078;-73
2022/08/02 07:00:23;;;;;;;0.70;0.63;;;25.80;90.90;;;;;;5116144;28;20040;-69
2022/08/02 07:02:50;;;;;;;2.00;0.80;;;26.50;90.60;;;;;;5115940;28;20522;-73
2022/08/02 07:05:16;;;;;;;1.17;0.80;;;26.30;89.60;;;;;;5115771;28;20055;-68
2022/08/02 07:07:41;;;;;;;1.60;0.50;;;26.10;89.40;;;;;;5097436;28;20023;-68
2022/08/02 07:10:08;;;;;;;0.65;0.60;;;26.00;88.80;;;;;;5115669;28;20043;-72
2022/08/02 07:12:34;;;;;;;1.20;0.82;;;26.00;89.70;;;;;;5115844;28;20039;-73
2022/08/02 07:15:03;;;;;;;0.80;0.63;;;26.40;88.00;;;;;;5115850;28;20570;-68
2022/08/02 07:17:29;;;;;;;5.88;1.08;;;26.10;98.80;;;;;;5097430;28;20035;-70
2022/08/02 07:19:56;;;;;;;0.73;0.65;;;26.50;87.10;;;;;;5097363;28;20039;-68
2022/08/02 07:22:23;;;;;;;0.80;0.80;;;26.40;87.70;;;;;;5115720;28;20094;-67
2022/08/02 07:24:49;;;;;;;3.33;0.60;;;26.70;86.70;;;;;;5115471;28;20046;-75
2022/08/02 07:27:15;;;;;;;0.88;0.70;;;27.20;86.20;;;;;;5097153;28;20036;-75
2022/08/02 07:29:41;;;;;;;9.63;1.48;;;27.10;86.50;;;;;;5115239;28;20035;-66
2022/08/02 07:32:07;;;;;;;3.13;0.80;;;27.00;87.00;;;;;;5115443;28;20051;-66
2022/08/02 07:34:32;;;;;;;1.67;0.80;;;27.20;85.00;;;;;;5115475;28;20071;-67
2022/08/02 07:36:59;;;;;;;0.93;0.82;;;27.30;85.40;;;;;;5115455;28;20032;-70
2022/08/02 07:39:24;;;;;;;2.85;0.77;;;27.30;85.60;;;;;;5115280;28;20518;-67
2022/08/02 07:41:51;;;;;;;1.25;0.60;;;27.10;85.30;;;;;;5115319;28;20031;-67
2022/08/02 07:44:18;;;;;;;1.52;1.02;;;26.10;86.90;;;;;;5115069;28;20051;-67
2022/08/02 07:46:45;;;;;;;0.77;0.70;;;25.60;87.30;;;;;;5096734;28;20039;-70
2022/08/02 07:49:17;;;;;;;5.35;0.95;;;25.40;88.50;;;;;;5114899;28;20043;-67
2022/08/02 07:51:44;;;;;;;4.70;0.90;;;25.40;89.30;;;;;;5114470;28;20090;-67
2022/08/02 07:54:10;;;;;;;0.77;0.75;;;25.70;89.00;;;;;;5114985;28;20036;-70
2022/08/02 07:56:36;;;;;;;1.02;0.77;;;25.50;88.70;;;;;;5115014;28;20044;-74
2022/08/02 07:59:02;;;;;;;5.50;1.05;;;26.40;87.70;;;;;;5114899;28;20032;-67
2022/08/02 08:01:28;;;;;;;3.92;0.90;;;26.00;87.90;;;;;;5114952;28;20417;-70
2022/08/02 08:03:54;;;;;;;1.85;1.20;;;26.30;87.90;;;;;;5114862;28;20046;-66
2022/08/02 08:06:19;;;;;;;1.65;1.17;;;25.60;88.40;;;;;;5114746;28;20138;-66
2022/08/02 08:08:46;;;;;;;1.00;0.90;;;25.80;88.70;;;;;;5114750;28;20031;-66
2022/08/02 08:11:12;;;;;;;1.08;0.70;;;25.80;88.30;;;;;;5114678;28;20130;-67
2022/08/02 08:13:37;;;;;;;1.17;0.80;;;26.50;87.60;;;;;;5114404;28;20574;-66
2022/08/02 08:16:04;;;;;;;0.80;0.73;;;26.00;87.00;;;;;;5114316;28;20039;-67
2022/08/02 08:18:30;;;;;;;1.33;0.68;;;25.70;87.50;;;;;;5114137;28;20118;-67
2022/08/02 08:20:55;;;;;;;0.70;0.70;;;25.80;88.00;;;;;;5114417;28;20074;-66
2022/08/02 08:23:21;;;;;;;1.25;0.88;;;26.30;86.40;;;;;;5114327;28;20566;-66
2022/08/02 08:25:47;;;;;;;2.50;0.70;;;26.80;85.40;;;;;;5095963;28;20028;-66
2022/08/02 08:28:13;;;;;;;3.60;1.00;;;27.00;84.80;;;;;;5114132;28;20040;-67
2022/08/02 08:30:40;;;;;;;0.70;0.70;;;26.50;84.50;;;;;;5114105;28;20050;-70
2022/08/02 08:33:06;;;;;;;0.90;0.70;;;26.90;84.70;;;;;;5114325;28;20133;-66
2022/08/02 08:35:32;;;;;;;1.25;1.10;;;26.30;84.60;;;;;;5114208;28;20035;-66
2022/08/02 08:37:58;;;;;;;0.82;0.73;;;27.00;84.50;;;;;;5114236;28;20043;-76
2022/08/02 08:40:24;;;;;;;2.28;0.70;;;26.90;84.00;;;;;;5114179;28;20035;-75
2022/08/02 08:42:50;;;;;;;1.65;0.85;;;26.90;83.10;;;;;;5114062;28;20118;-66
2022/08/02 08:45:16;;;;;;;1.00;0.80;;;26.60;83.70;;;;;;5113896;28;20035;-66
2022/08/02 08:47:43;;;;;;;1.77;0.77;;;27.00;83.00;;;;;;5114112;28;20047;-66
2022/08/02 08:50:13;;;;;;;0.90;0.75;;;26.90;83.40;;;;;;5095206;28;20506;-74
2022/08/02 08:52:47;;;;;;;1.15;0.80;;;26.80;83.00;;;;;;5114070;28;20051;-67
2022/08/02 08:55:17;;;;;;;1.35;0.70;;;26.60;84.10;;;;;;5095765;28;20085;-67
2022/08/02 08:57:43;;;;;;;1.27;0.82;;;26.70;83.60;;;;;;5114375;28;20498;-67
2022/08/02 09:00:15;;;;;;;2.05;0.90;;;26.50;83.70;;;;;;5114156;28;20122;-67
2022/08/02 09:02:42;;;;;;;3.00;0.85;;;27.40;83.50;;;;;;5095401;28;20406;-75
2022/08/02 09:05:13;;;;;;;2.10;0.90;;;27.10;82.90;;;;;;5113794;28;20071;-67
2022/08/02 09:07:41;;;;;;;3.10;1.05;;;27.00;83.50;;;;;;5095540;28;20044;-67
2022/08/02 09:10:37;;;;;;;2.40;1.00;;;27.00;84.10;;;;;;5113738;28;20055;-73
2022/08/02 09:13:28;;;;;;;1.50;1.10;;;27.50;82.20;;;;;;5113759;28;20035;-66
2022/08/02 09:16:12;;;;;;;1.40;0.98;;;26.90;83.80;;;;;;5095438;28;20080;-75
2022/08/02 09:18:46;;;;;;;3.47;1.20;;;27.30;83.30;;;;;;5113437;28;20395;-66
2022/08/02 09:21:13;;;;;;;3.67;0.98;;;26.90;83.90;;;;;;5094853;28;20088;-67
2022/08/02 09:23:41;;;;;;;3.78;0.73;;;27.40;82.40;;;;;;5095231;28;20406;-68
2022/08/02 09:26:09;;;;;;;2.92;1.25;;;27.70;83.20;;;;;;5113596;28;20093;-68
2022/08/02 09:28:37;;;;;;;1.23;0.65;;;27.50;82.30;;;;;;5113623;28;20043;-67
2022/08/02 09:31:06;;;;;;;0.70;0.65;;;27.30;83.30;;;;;;5113421;28;20048;-66
2022/08/02 09:33:32;;;;;;;0.93;0.80;;;27.40;82.30;;;;;;5113499;28;20118;-67
2022/08/02 09:36:10;;;;;;;5.72;1.58;;;27.20;82.10;;;;;;5113299;28;20437;-66
2022/08/02 09:38:38;;;;;;;5.30;0.90;;;27.60;81.60;;;;;;5113507;28;20036;-67
2022/08/02 09:41:05;;;;;;;0.93;0.80;;;27.90;81.10;;;;;;5095184;28;20059;-67
2022/08/02 09:43:36;;;;;;;1.05;0.80;;;27.60;81.20;;;;;;5113582;28;20208;-66
2022/08/02 09:46:21;;;;;;;;;;;27.20;82.10;;;;;;5113864;28;20395;-66
2022/08/02 09:48:59;;;;;;;3.22;0.70;;;27.90;81.80;;;;;;5112891;28;19918;-67
2022/08/02 09:51:34;;;;;;;1.00;0.80;;;27.50;81.30;;;;;;5113225;28;20055;-67
2022/08/02 09:54:03;;;;;;;4.63;0.80;;;27.00;81.90;;;;;;5094972;28;20039;-66
2022/08/02 09:56:41;;;;;;;2.90;0.85;;;27.40;80.90;;;;;;5113141;28;20035;-66
2022/08/02 09:59:07;;;;;;;4.40;0.93;;;27.20;81.60;;;;;;5113291;28;20054;-67
2022/08/02 10:01:34;;;;;;;3.78;0.90;;;26.70;81.40;;;;;;5094968;28;20148;-66
2022/08/02 10:04:02;;;;;;;2.75;0.60;;;27.00;82.10;;;;;;5098102;28;20035;-74
2022/08/02 10:06:29;;;;;;;1.48;0.82;;;27.10;81.50;;;;;;5116885;28;20042;-67
2022/08/02 10:08:55;;;;;;;1.13;0.80;;;27.20;82.00;;;;;;5117022;28;20165;-67
2022/08/02 10:11:22;;;;;;;1.33;0.88;;;27.40;81.00;;;;;;5116902;28;20051;-67
2022/08/02 10:13:49;;;;;;;1.35;0.70;;;27.00;82.00;;;;;;5116960;28;20114;-67
2022/08/02 10:16:16;;;;;;;1.48;0.80;;;27.10;81.30;;;;;;5116911;28;20038;-67
2022/08/02 10:18:43;;;;;;;1.42;0.77;;;27.00;81.30;;;;;;5116926;28;20035;-66
2022/08/02 10:21:32;;;;;;;1.08;0.88;;;27.60;81.60;;;;;;5116800;28;20047;-67
2022/08/02 10:24:09;;;;;;;0.65;0.60;;;27.80;80.00;;;;;;5116642;28;20047;-67
2022/08/02 10:26:38;;;;;;;2.40;0.90;;;28.00;79.70;;;;;;5116674;28;20035;-67
2022/08/02 10:29:04;;;;;;;3.38;1.00;;;28.40;79.70;;;;;;5098138;28;20047;-67
2022/08/02 10:31:42;;;;;;;1.92;0.80;;;27.60;79.80;;;;;;5116137;28;20051;-67
2022/08/02 10:34:11;;;;;;;1.52;0.80;;;27.50;80.30;;;;;;5116425;28;20039;-66
2022/08/02 10:36:40;;;;;;;4.63;1.13;;;28.10;79.70;;;;;;5116633;28;20047;-66
2022/08/02 10:39:06;;;;;;;1.27;0.90;;;28.00;79.10;;;;;;5116524;28;20039;-71
2022/08/02 10:41:41;;;;;;;3.72;1.15;;;28.20;79.40;;;;;;5116405;28;20155;-67
2022/08/02 10:44:07;;;;;;;3.35;0.95;;;28.20;78.70;;;;;;5116338;28;20028;-67
2022/08/02 10:46:37;;;;;;;1.98;0.80;;;28.40;78.60;;;;;;5116246;28;20567;-67
2022/08/02 10:49:11;;;;;;;5.03;0.93;;;28.50;79.10;;;;;;5116353;28;20027;-67
2022/08/02 10:51:56;;;;;;;4.60;1.13;;;28.50;78.40;;;;;;5115649;28;20146;-66
2022/08/02 10:54:26;;;;;;;3.50;0.75;;;28.30;77.90;;;;;;5116103;28;20032;-66
2022/08/02 10:56:54;;;;;;;1.30;0.55;;;28.10;79.00;;;;;;5116059;28;20086;-67
2022/08/02 10:59:34;;;;;;;1.45;1.05;;;27.70;79.20;;;;;;5097693;28;20037;-66
2022/08/02 11:02:03;;;;;;;6.20;1.05;;;28.00;79.00;;;;;;5116080;28;20028;-73
2022/08/02 11:04:41;;;;;;;1.58;0.65;;;28.50;77.90;;;;;;5115460;28;20108;-67
2022/08/02 11:07:12;;;;;;;0.88;0.73;;;28.40;77.60;;;;;;5114829;28;20040;-67
2022/08/02 11:09:40;;;;;;;1.05;0.80;;;28.50;77.70;;;;;;5115884;28;20051;-66
2022/08/02 11:12:06;;;;;;;1.65;0.95;;;29.00;77.10;;;;;;5115760;28;20441;-66
2022/08/02 11:14:34;;;;;;;1.70;1.08;;;29.20;76.20;;;;;;5115406;28;20035;-67
2022/08/02 11:17:04;;;;;;;0.88;0.73;;;28.90;76.40;;;;;;5097419;28;20563;-67
2022/08/02 11:19:31;;;;;;;0.80;0.80;;;29.00;77.30;;;;;;5097464;28;20039;-66
2022/08/02 11:22:10;;;;;;;1.48;0.90;;;28.90;75.80;;;;;;5115670;28;20491;-67
2022/08/02 11:24:38;;;;;;;3.05;0.88;;;29.00;76.10;;;;;;5097269;28;20071;-67
2022/08/02 11:27:06;;;;;;;0.98;0.88;;;28.40;76.20;;;;;;5115565;28;20126;-67
2022/08/02 11:29:34;;;;;;;1.48;0.60;;;28.90;76.80;;;;;;5097350;28;20044;-67
2022/08/02 11:32:00;;;;;;;1.95;0.60;;;28.70;74.70;;;;;;5115420;28;20066;-66
2022/08/02 11:34:27;;;;;;;1.88;0.85;;;28.70;74.70;;;;;;5115577;28;20031;-68
2022/08/02 11:36:53;;;;;;;0.82;0.60;;;28.70;76.10;;;;;;5097071;28;20069;-68
2022/08/02 11:39:21;;;;;;;0.93;0.77;;;29.00;75.50;;;;;;5115441;28;20757;-67
2022/08/02 11:41:50;;;;;;;0.57;0.55;;;29.10;76.80;;;;;;5097081;28;20111;-67
2022/08/02 11:44:17;;;;;;;1.88;0.77;;;29.40;75.30;;;;;;5115335;28;20721;-71
2022/08/02 11:46:43;;;;;;;1.88;0.90;;;28.90;75.30;;;;;;5115377;28;20051;-67
2022/08/02 11:49:17;;;;;;;1.05;0.75;;;29.00;75.10;;;;;;5115215;28;20503;-67
2022/08/02 11:51:51;;;;;;;1.08;0.70;;;29.30;74.30;;;;;;5096576;28;20414;-71
2022/08/02 11:54:40;;;;;;;0.60;0.60;;;29.20;75.50;;;;;;5096930;28;20035;-76
2022/08/02 11:57:14;;;;;;;0.77;0.75;;;29.50;74.10;;;;;;5094704;28;20088;-78
2022/08/02 11:59:41;;;;;;;1.83;0.90;;;29.80;73.30;;;;;;5112350;28;20123;-78
2022/08/02 12:02:08;;;;;;;0.88;0.75;;;29.50;73.60;;;;;;5093272;28;20070;-77
2022/08/02 12:04:35;;;;;;;4.22;0.85;;;29.40;73.70;;;;;;5112158;28;20510;-78
2022/08/02 12:07:03;;;;;;;1.10;0.75;;;29.40;73.20;;;;;;5093427;28;20046;-76
2022/08/02 12:09:31;;;;;;;3.00;1.10;;;29.40;73.10;;;;;;5113426;28;20426;-78
2022/08/02 12:11:58;;;;;;;3.17;0.70;;;29.50;73.20;;;;;;5112695;28;20060;-77
2022/08/02 12:14:26;;;;;;;0.98;0.70;;;29.50;73.10;;;;;;5112166;28;20451;-77
2022/08/02 12:19:41;;;;;;;1.48;0.73;;;29.50;73.20;;;;;;5112728;28;20096;-75
2022/08/02 12:22:19;;;;;;;2.05;1.10;;;29.40;72.70;;;;;;5094115;28;20536;-75
2022/08/02 12:24:50;;;;;;;0.68;0.68;;;29.40;73.40;;;;;;5111557;28;20487;-75
2022/08/02 12:27:40;;;;;;;2.05;0.90;;;29.60;72.80;;;;;;5093739;28;20514;-74
2022/08/02 12:30:06;;;;;;;2.10;1.00;;;29.60;72.30;;;;;;5112695;28;20065;-76
2022/08/02 12:32:34;;;;;;;0.82;0.60;;;29.80;72.20;;;;;;5114015;28;20049;-76
2022/08/02 12:35:06;;;;;;;4.43;0.77;;;29.60;72.30;;;;;;5112295;28;20043;-75
2022/08/02 12:37:32;;;;;;;2.78;0.93;;;29.60;72.30;;;;;;5093960;28;20043;-79
2022/08/02 12:40:16;;;;;;;1.13;0.88;;;29.30;72.50;;;;;;5111173;28;20039;-77
2022/08/02 12:42:49;;;;;;;3.10;0.60;;;29.50;72.80;;;;;;5111523;28;20039;-76
2022/08/02 12:45:15;;;;;;;4.47;0.60;;;29.10;72.30;;;;;;5112160;28;20502;-79
2022/08/02 12:47:50;;;;;;;0.90;0.73;;;29.50;72.60;;;;;;5093657;28;20126;-75
2022/08/02 12:50:33;;;;;;;1.27;0.77;;;29.10;72.00;;;;;;5093169;28;20044;-76
2022/08/02 12:53:05;;;;;;;6.18;1.48;;;29.50;72.20;;;;;;5111550;28;20469;-74
2022/08/02 12:55:31;;;;;;;0.73;0.70;;;29.60;71.80;;;;;;5111844;28;20071;-79
2022/08/02 12:57:59;;;;;;;1.30;0.73;;;29.60;72.00;;;;;;5112877;28;20039;-76
2022/08/02 13:00:30;;;;;;;1.15;0.90;;;29.70;71.90;;;;;;5095453;28;20061;-76
2022/08/02 13:02:56;;;;;;;;;;;29.70;71.30;;;;;;5114054;28;20043;-77